sensor_id;sensor_type;location;lat;lon;timestamp;P1;durP1;ratioP1;P2;durP2;ratioP2
41255;SDS011;26989;45.524;10.938;2022-10-26T00:01:02;26.73;;;14.38;;
41255;SDS011;26989;45.524;10.938;2022-10-26T00:03:37;29.27;;;13.38;;
41255;SDS011;26989;45.524;10.938;2022-10-26T00:06:09;26.20;;;14.07;;
41255;SDS011;26989;45.524;10.938;2022-10-26T00:08:38;21.98;;;12.73;;
41255;SDS011;26989;45.524;10.938;2022-10-26T00:11:05;25.83;;;13.32;;
41255;SDS011;26989;45.524;10.938;2022-10-26T00:13:33;23.95;;;12.00;;
41255;SDS011;26989;45.524;10.938;2022-10-26T00:16:06;28.55;;;12.75;;
41255;SDS011;26989;45.524;10.938;2022-10-26T00:18:37;24.77;;;14.60;;
41255;SDS011;26989;45.524;10.938;2022-10-26T00:21:05;31.55;;;13.98;;
41255;SDS011;26989;45.524;10.938;2022-10-26T00:23:32;27.95;;;16.40;;
41255;SDS011;26989;45.524;10.938;2022-10-26T00:25:59;30.83;;;15.95;;
41255;SDS011;26989;45.524;10.938;2022-10-26T00:28:26;33.53;;;16.85;;
41255;SDS011;26989;45.524;10.938;2022-10-26T00:30:54;27.67;;;15.10;;
41255;SDS011;26989;45.524;10.938;2022-10-26T00:33:25;21.48;;;13.27;;
41255;SDS011;26989;45.524;10.938;2022-10-26T00:35:55;23.80;;;13.43;;
41255;SDS011;26989;45.524;10.938;2022-10-26T00:38:21;25.95;;;14.38;;
41255;SDS011;26989;45.524;10.938;2022-10-26T00:40:48;27.77;;;14.05;;
41255;SDS011;26989;45.524;10.938;2022-10-26T00:43:32;27.40;;;13.82;;
41255;SDS011;26989;45.524;10.938;2022-10-26T00:46:01;27.90;;;14.52;;
41255;SDS011;26989;45.524;10.938;2022-10-26T00:48:33;28.75;;;14.93;;
41255;SDS011;26989;45.524;10.938;2022-10-26T00:51:05;27.10;;;14.45;;
41255;SDS011;26989;45.524;10.938;2022-10-26T00:53:37;31.63;;;15.50;;
41255;SDS011;26989;45.524;10.938;2022-10-26T00:56:04;29.42;;;15.05;;
41255;SDS011;26989;45.524;10.938;2022-10-26T00:58:31;29.13;;;15.50;;
41255;SDS011;26989;45.524;10.938;2022-10-26T01:01:00;34.25;;;16.75;;
41255;SDS011;26989;45.524;10.938;2022-10-26T01:03:27;31.50;;;15.98;;
41255;SDS011;26989;45.524;10.938;2022-10-26T01:05:56;35.30;;;16.40;;
41255;SDS011;26989;45.524;10.938;2022-10-26T01:08:24;27.88;;;16.42;;
41255;SDS011;26989;45.524;10.938;2022-10-26T01:10:53;36.97;;;17.65;;
41255;SDS011;26989;45.524;10.938;2022-10-26T01:13:22;35.42;;;17.67;;
41255;SDS011;26989;45.524;10.938;2022-10-26T01:26:46;33.83;;;16.17;;
41255;SDS011;26989;45.524;10.938;2022-10-26T01:32:13;36.15;;;17.63;;
41255;SDS011;26989;45.524;10.938;2022-10-26T01:35:04;31.50;;;17.42;;
41255;SDS011;26989;45.524;10.938;2022-10-26T01:38:05;33.22;;;16.95;;
41255;SDS011;26989;45.524;10.938;2022-10-26T01:40:37;33.08;;;18.00;;
41255;SDS011;26989;45.524;10.938;2022-10-26T01:43:10;36.83;;;19.00;;
41255;SDS011;26989;45.524;10.938;2022-10-26T01:45:41;33.08;;;18.02;;
41255;SDS011;26989;45.524;10.938;2022-10-26T01:48:11;32.63;;;17.48;;
41255;SDS011;26989;45.524;10.938;2022-10-26T01:50:41;34.40;;;18.30;;
41255;SDS011;26989;45.524;10.938;2022-10-26T01:53:12;34.90;;;16.42;;
41255;SDS011;26989;45.524;10.938;2022-10-26T01:55:52;25.67;;;14.88;;
41255;SDS011;26989;45.524;10.938;2022-10-26T02:03:57;30.00;;;15.07;;
41255;SDS011;26989;45.524;10.938;2022-10-26T02:11:59;22.48;;;12.50;;
41255;SDS011;26989;45.524;10.938;2022-10-26T02:17:10;29.00;;;13.88;;
41255;SDS011;26989;45.524;10.938;2022-10-26T02:20:06;34.00;;;16.60;;
41255;SDS011;26989;45.524;10.938;2022-10-26T02:22:46;31.83;;;16.40;;
41255;SDS011;26989;45.524;10.938;2022-10-26T02:25:19;32.40;;;15.95;;
41255;SDS011;26989;45.524;10.938;2022-10-26T02:27:52;33.92;;;15.90;;
41255;SDS011;26989;45.524;10.938;2022-10-26T02:30:23;28.13;;;14.80;;
41255;SDS011;26989;45.524;10.938;2022-10-26T02:32:51;32.15;;;16.83;;
41255;SDS011;26989;45.524;10.938;2022-10-26T02:35:21;28.35;;;13.95;;
41255;SDS011;26989;45.524;10.938;2022-10-26T02:37:53;32.92;;;16.95;;
41255;SDS011;26989;45.524;10.938;2022-10-26T02:40:23;30.73;;;15.93;;
41255;SDS011;26989;45.524;10.938;2022-10-26T02:42:53;29.50;;;15.90;;
41255;SDS011;26989;45.524;10.938;2022-10-26T02:47:53;31.55;;;14.60;;
41255;SDS011;26989;45.524;10.938;2022-10-26T02:50:22;34.80;;;14.60;;
41255;SDS011;26989;45.524;10.938;2022-10-26T02:55:42;27.33;;;14.38;;
41255;SDS011;26989;45.524;10.938;2022-10-26T02:58:36;28.88;;;13.63;;
41255;SDS011;26989;45.524;10.938;2022-10-26T03:01:03;29.38;;;14.52;;
41255;SDS011;26989;45.524;10.938;2022-10-26T03:03:30;30.60;;;16.40;;
41255;SDS011;26989;45.524;10.938;2022-10-26T03:05:57;31.20;;;16.10;;
41255;SDS011;26989;45.524;10.938;2022-10-26T03:08:24;27.60;;;14.18;;
41255;SDS011;26989;45.524;10.938;2022-10-26T03:10:50;24.73;;;14.82;;
41255;SDS011;26989;45.524;10.938;2022-10-26T03:13:17;28.70;;;13.75;;
41255;SDS011;26989;45.524;10.938;2022-10-26T03:15:44;30.35;;;15.18;;
41255;SDS011;26989;45.524;10.938;2022-10-26T03:18:11;33.45;;;15.10;;
41255;SDS011;26989;45.524;10.938;2022-10-26T03:20:37;30.88;;;15.00;;
41255;SDS011;26989;45.524;10.938;2022-10-26T03:23:04;27.95;;;13.52;;
41255;SDS011;26989;45.524;10.938;2022-10-26T03:25:31;28.98;;;14.27;;
41255;SDS011;26989;45.524;10.938;2022-10-26T03:27:59;29.70;;;15.07;;
41255;SDS011;26989;45.524;10.938;2022-10-26T03:30:27;30.00;;;14.68;;
41255;SDS011;26989;45.524;10.938;2022-10-26T03:32:55;29.83;;;14.50;;
41255;SDS011;26989;45.524;10.938;2022-10-26T03:35:22;30.15;;;13.75;;
41255;SDS011;26989;45.524;10.938;2022-10-26T03:37:49;28.95;;;13.88;;
41255;SDS011;26989;45.524;10.938;2022-10-26T03:40:17;30.58;;;13.60;;
41255;SDS011;26989;45.524;10.938;2022-10-26T03:42:43;27.40;;;13.98;;
41255;SDS011;26989;45.524;10.938;2022-10-26T03:45:10;27.20;;;12.65;;
41255;SDS011;26989;45.524;10.938;2022-10-26T03:47:44;27.80;;;13.88;;
41255;SDS011;26989;45.524;10.938;2022-10-26T03:50:12;28.38;;;13.75;;
41255;SDS011;26989;45.524;10.938;2022-10-26T03:52:40;25.15;;;13.18;;
41255;SDS011;26989;45.524;10.938;2022-10-26T03:55:07;27.48;;;13.73;;
41255;SDS011;26989;45.524;10.938;2022-10-26T03:57:38;27.25;;;13.85;;
41255;SDS011;26989;45.524;10.938;2022-10-26T04:00:10;25.55;;;13.90;;
41255;SDS011;26989;45.524;10.938;2022-10-26T04:02:41;25.15;;;14.07;;
41255;SDS011;26989;45.524;10.938;2022-10-26T04:05:15;28.20;;;15.07;;
41255;SDS011;26989;45.524;10.938;2022-10-26T04:07:42;27.83;;;14.13;;
41255;SDS011;26989;45.524;10.938;2022-10-26T04:10:09;34.35;;;17.02;;
41255;SDS011;26989;45.524;10.938;2022-10-26T04:12:36;26.75;;;14.95;;
41255;SDS011;26989;45.524;10.938;2022-10-26T04:15:03;24.63;;;13.55;;
41255;SDS011;26989;45.524;10.938;2022-10-26T04:17:32;31.20;;;15.27;;
41255;SDS011;26989;45.524;10.938;2022-10-26T04:19:59;31.25;;;15.05;;
41255;SDS011;26989;45.524;10.938;2022-10-26T04:22:26;26.35;;;14.90;;
41255;SDS011;26989;45.524;10.938;2022-10-26T04:24:53;27.63;;;15.05;;
41255;SDS011;26989;45.524;10.938;2022-10-26T04:27:20;29.17;;;16.17;;
41255;SDS011;26989;45.524;10.938;2022-10-26T04:29:47;26.83;;;15.55;;
41255;SDS011;26989;45.524;10.938;2022-10-26T04:32:14;29.90;;;15.18;;
41255;SDS011;26989;45.524;10.938;2022-10-26T04:34:40;29.25;;;15.13;;
41255;SDS011;26989;45.524;10.938;2022-10-26T04:37:07;30.63;;;16.02;;
41255;SDS011;26989;45.524;10.938;2022-10-26T04:39:34;30.63;;;15.88;;
41255;SDS011;26989;45.524;10.938;2022-10-26T04:42:01;31.77;;;16.08;;
41255;SDS011;26989;45.524;10.938;2022-10-26T04:44:28;28.30;;;15.98;;
41255;SDS011;26989;45.524;10.938;2022-10-26T04:46:55;27.63;;;15.40;;
41255;SDS011;26989;45.524;10.938;2022-10-26T04:49:21;30.83;;;15.38;;
41255;SDS011;26989;45.524;10.938;2022-10-26T04:51:48;22.30;;;13.05;;
41255;SDS011;26989;45.524;10.938;2022-10-26T04:54:15;29.48;;;13.93;;
41255;SDS011;26989;45.524;10.938;2022-10-26T04:56:42;23.80;;;13.63;;
41255;SDS011;26989;45.524;10.938;2022-10-26T04:59:09;28.85;;;14.80;;
41255;SDS011;26989;45.524;10.938;2022-10-26T05:01:35;26.30;;;14.52;;
41255;SDS011;26989;45.524;10.938;2022-10-26T05:04:02;29.50;;;14.60;;
41255;SDS011;26989;45.524;10.938;2022-10-26T05:06:29;28.45;;;15.15;;
41255;SDS011;26989;45.524;10.938;2022-10-26T05:08:56;26.60;;;14.52;;
41255;SDS011;26989;45.524;10.938;2022-10-26T05:11:22;29.13;;;15.13;;
41255;SDS011;26989;45.524;10.938;2022-10-26T05:13:49;27.17;;;15.45;;
41255;SDS011;26989;45.524;10.938;2022-10-26T05:16:16;31.63;;;15.55;;
41255;SDS011;26989;45.524;10.938;2022-10-26T05:18:43;27.38;;;14.55;;
41255;SDS011;26989;45.524;10.938;2022-10-26T05:21:12;30.25;;;14.75;;
41255;SDS011;26989;45.524;10.938;2022-10-26T05:23:53;30.08;;;14.35;;
41255;SDS011;26989;45.524;10.938;2022-10-26T05:26:21;24.88;;;12.50;;
41255;SDS011;26989;45.524;10.938;2022-10-26T05:28:48;27.08;;;13.48;;
41255;SDS011;26989;45.524;10.938;2022-10-26T05:31:16;26.88;;;13.20;;
41255;SDS011;26989;45.524;10.938;2022-10-26T05:33:43;23.35;;;13.70;;
41255;SDS011;26989;45.524;10.938;2022-10-26T05:36:13;28.30;;;13.43;;
41255;SDS011;26989;45.524;10.938;2022-10-26T05:38:40;23.95;;;12.63;;
41255;SDS011;26989;45.524;10.938;2022-10-26T05:41:06;22.63;;;12.18;;
41255;SDS011;26989;45.524;10.938;2022-10-26T05:43:33;21.20;;;13.10;;
41255;SDS011;26989;45.524;10.938;2022-10-26T05:46:00;24.60;;;13.13;;
41255;SDS011;26989;45.524;10.938;2022-10-26T05:48:27;32.03;;;13.55;;
41255;SDS011;26989;45.524;10.938;2022-10-26T05:50:57;23.67;;;12.18;;
41255;SDS011;26989;45.524;10.938;2022-10-26T05:53:24;25.52;;;13.90;;
41255;SDS011;26989;45.524;10.938;2022-10-26T05:55:52;22.17;;;12.90;;
41255;SDS011;26989;45.524;10.938;2022-10-26T05:58:20;29.23;;;12.80;;
41255;SDS011;26989;45.524;10.938;2022-10-26T06:06:24;27.55;;;13.98;;
41255;SDS011;26989;45.524;10.938;2022-10-26T06:08:53;28.25;;;13.73;;
41255;SDS011;26989;45.524;10.938;2022-10-26T06:11:20;25.58;;;13.40;;
41255;SDS011;26989;45.524;10.938;2022-10-26T06:13:47;22.65;;;11.85;;
41255;SDS011;26989;45.524;10.938;2022-10-26T06:16:19;29.83;;;14.27;;
41255;SDS011;26989;45.524;10.938;2022-10-26T06:24:57;28.35;;;14.23;;
41255;SDS011;26989;45.524;10.938;2022-10-26T06:30:17;27.27;;;14.38;;
41255;SDS011;26989;45.524;10.938;2022-10-26T06:32:45;34.67;;;16.40;;
41255;SDS011;26989;45.524;10.938;2022-10-26T06:37:59;29.17;;;15.23;;
41255;SDS011;26989;45.524;10.938;2022-10-26T06:40:30;32.40;;;15.97;;
41255;SDS011;26989;45.524;10.938;2022-10-26T06:43:00;31.25;;;15.82;;
41255;SDS011;26989;45.524;10.938;2022-10-26T06:45:27;32.53;;;16.40;;
41255;SDS011;26989;45.524;10.938;2022-10-26T06:48:06;29.58;;;15.63;;
41255;SDS011;26989;45.524;10.938;2022-10-26T06:50:59;31.67;;;15.77;;
41255;SDS011;26989;45.524;10.938;2022-10-26T06:53:31;32.10;;;15.85;;
41255;SDS011;26989;45.524;10.938;2022-10-26T06:56:02;30.30;;;16.95;;
41255;SDS011;26989;45.524;10.938;2022-10-26T06:58:31;29.95;;;16.67;;
41255;SDS011;26989;45.524;10.938;2022-10-26T07:01:00;32.65;;;15.23;;
41255;SDS011;26989;45.524;10.938;2022-10-26T07:03:27;32.17;;;17.20;;
41255;SDS011;26989;45.524;10.938;2022-10-26T07:05:54;31.30;;;16.85;;
41255;SDS011;26989;45.524;10.938;2022-10-26T07:08:21;36.40;;;16.10;;
41255;SDS011;26989;45.524;10.938;2022-10-26T07:10:48;31.40;;;15.68;;
41255;SDS011;26989;45.524;10.938;2022-10-26T07:13:14;31.20;;;14.18;;
41255;SDS011;26989;45.524;10.938;2022-10-26T07:15:41;35.40;;;16.02;;
41255;SDS011;26989;45.524;10.938;2022-10-26T07:18:08;28.52;;;13.60;;
41255;SDS011;26989;45.524;10.938;2022-10-26T07:20:36;28.27;;;13.82;;
41255;SDS011;26989;45.524;10.938;2022-10-26T07:23:05;28.10;;;15.50;;
41255;SDS011;26989;45.524;10.938;2022-10-26T07:25:33;31.77;;;14.13;;
41255;SDS011;26989;45.524;10.938;2022-10-26T07:28:00;32.13;;;14.52;;
41255;SDS011;26989;45.524;10.938;2022-10-26T07:30:27;32.97;;;14.57;;
41255;SDS011;26989;45.524;10.938;2022-10-26T07:33:05;30.73;;;14.93;;
41255;SDS011;26989;45.524;10.938;2022-10-26T07:35:34;27.88;;;14.98;;
41255;SDS011;26989;45.524;10.938;2022-10-26T07:38:02;27.90;;;13.77;;
41255;SDS011;26989;45.524;10.938;2022-10-26T07:40:29;31.23;;;14.57;;
41255;SDS011;26989;45.524;10.938;2022-10-26T07:42:57;30.08;;;14.90;;
41255;SDS011;26989;45.524;10.938;2022-10-26T07:45:25;36.63;;;15.70;;
41255;SDS011;26989;45.524;10.938;2022-10-26T07:47:52;33.08;;;15.52;;
41255;SDS011;26989;45.524;10.938;2022-10-26T07:50:19;28.98;;;15.32;;
41255;SDS011;26989;45.524;10.938;2022-10-26T07:52:46;31.70;;;15.95;;
41255;SDS011;26989;45.524;10.938;2022-10-26T07:55:14;34.80;;;17.48;;
41255;SDS011;26989;45.524;10.938;2022-10-26T07:57:41;37.42;;;17.25;;
41255;SDS011;26989;45.524;10.938;2022-10-26T08:00:08;39.88;;;16.85;;
41255;SDS011;26989;45.524;10.938;2022-10-26T08:02:35;31.50;;;15.63;;
41255;SDS011;26989;45.524;10.938;2022-10-26T08:05:02;26.83;;;13.57;;
41255;SDS011;26989;45.524;10.938;2022-10-26T08:07:30;23.50;;;13.70;;
41255;SDS011;26989;45.524;10.938;2022-10-26T08:09:56;27.60;;;13.90;;
41255;SDS011;26989;45.524;10.938;2022-10-26T08:12:23;28.60;;;13.43;;
41255;SDS011;26989;45.524;10.938;2022-10-26T08:14:50;24.38;;;13.82;;
41255;SDS011;26989;45.524;10.938;2022-10-26T08:17:17;28.17;;;13.55;;
41255;SDS011;26989;45.524;10.938;2022-10-26T08:19:46;26.60;;;12.93;;
41255;SDS011;26989;45.524;10.938;2022-10-26T08:22:13;28.02;;;13.38;;
41255;SDS011;26989;45.524;10.938;2022-10-26T08:24:44;28.73;;;13.55;;
41255;SDS011;26989;45.524;10.938;2022-10-26T08:27:12;25.88;;;13.52;;
41255;SDS011;26989;45.524;10.938;2022-10-26T08:29:40;25.67;;;12.98;;
41255;SDS011;26989;45.524;10.938;2022-10-26T08:32:07;22.65;;;13.07;;
41255;SDS011;26989;45.524;10.938;2022-10-26T08:34:34;24.95;;;13.25;;
41255;SDS011;26989;45.524;10.938;2022-10-26T08:37:01;30.95;;;13.57;;
41255;SDS011;26989;45.524;10.938;2022-10-26T08:39:28;25.13;;;12.90;;
41255;SDS011;26989;45.524;10.938;2022-10-26T08:42:09;26.88;;;13.73;;
41255;SDS011;26989;45.524;10.938;2022-10-26T08:44:46;23.58;;;14.35;;
41255;SDS011;26989;45.524;10.938;2022-10-26T08:47:17;24.42;;;13.93;;
41255;SDS011;26989;45.524;10.938;2022-10-26T08:55:15;27.48;;;13.20;;
41255;SDS011;26989;45.524;10.938;2022-10-26T08:57:45;27.80;;;13.70;;
41255;SDS011;26989;45.524;10.938;2022-10-26T09:00:19;26.10;;;13.38;;
41255;SDS011;26989;45.524;10.938;2022-10-26T09:02:50;27.48;;;13.52;;
41255;SDS011;26989;45.524;10.938;2022-10-26T09:05:28;28.90;;;14.93;;
41255;SDS011;26989;45.524;10.938;2022-10-26T09:10:44;25.27;;;14.48;;
41255;SDS011;26989;45.524;10.938;2022-10-26T09:18:55;28.15;;;14.63;;
41255;SDS011;26989;45.524;10.938;2022-10-26T09:21:47;27.05;;;14.32;;
41255;SDS011;26989;45.524;10.938;2022-10-26T09:24:35;25.67;;;14.25;;
41255;SDS011;26989;45.524;10.938;2022-10-26T09:27:41;27.77;;;14.43;;
41255;SDS011;26989;45.524;10.938;2022-10-26T09:30:11;23.45;;;14.90;;
41255;SDS011;26989;45.524;10.938;2022-10-26T09:32:44;25.77;;;14.05;;
41255;SDS011;26989;45.524;10.938;2022-10-26T09:35:23;25.13;;;14.85;;
41255;SDS011;26989;45.524;10.938;2022-10-26T09:38:03;38.55;;;15.30;;
41255;SDS011;26989;45.524;10.938;2022-10-26T09:46:22;25.60;;;14.75;;
41255;SDS011;26989;45.524;10.938;2022-10-26T09:48:54;27.02;;;15.10;;
41255;SDS011;26989;45.524;10.938;2022-10-26T09:51:25;25.20;;;14.27;;
41255;SDS011;26989;45.524;10.938;2022-10-26T09:53:55;35.92;;;15.93;;
41255;SDS011;26989;45.524;10.938;2022-10-26T09:56:23;27.10;;;14.93;;
41255;SDS011;26989;45.524;10.938;2022-10-26T09:58:52;28.52;;;14.65;;
41255;SDS011;26989;45.524;10.938;2022-10-26T10:04:15;28.30;;;14.73;;
41255;SDS011;26989;45.524;10.938;2022-10-26T10:09:30;31.33;;;15.45;;
41255;SDS011;26989;45.524;10.938;2022-10-26T10:11:57;28.48;;;14.00;;
41255;SDS011;26989;45.524;10.938;2022-10-26T10:14:38;23.75;;;13.13;;
41255;SDS011;26989;45.524;10.938;2022-10-26T10:17:06;29.10;;;14.95;;
41255;SDS011;26989;45.524;10.938;2022-10-26T10:19:47;30.90;;;15.20;;
41255;SDS011;26989;45.524;10.938;2022-10-26T10:24:57;23.08;;;13.10;;
41255;SDS011;26989;45.524;10.938;2022-10-26T10:27:26;23.50;;;13.00;;
41255;SDS011;26989;45.524;10.938;2022-10-26T10:29:54;21.40;;;12.57;;
41255;SDS011;26989;45.524;10.938;2022-10-26T10:32:29;22.85;;;13.90;;
41255;SDS011;26989;45.524;10.938;2022-10-26T10:35:04;26.90;;;13.30;;
41255;SDS011;26989;45.524;10.938;2022-10-26T10:37:54;22.20;;;12.57;;
41255;SDS011;26989;45.524;10.938;2022-10-26T10:40:25;28.08;;;14.10;;
41255;SDS011;26989;45.524;10.938;2022-10-26T10:43:03;25.52;;;14.75;;
41255;SDS011;26989;45.524;10.938;2022-10-26T10:45:38;29.77;;;15.35;;
41255;SDS011;26989;45.524;10.938;2022-10-26T10:50:55;30.90;;;15.40;;
41255;SDS011;26989;45.524;10.938;2022-10-26T10:53:32;28.15;;;14.82;;
41255;SDS011;26989;45.524;10.938;2022-10-26T11:01:55;21.00;;;10.52;;
41255;SDS011;26989;45.524;10.938;2022-10-26T11:07:24;20.80;;;9.77;;
41255;SDS011;26989;45.524;10.938;2022-10-26T11:09:53;22.15;;;8.65;;
41255;SDS011;26989;45.524;10.938;2022-10-26T11:12:32;20.45;;;8.90;;
41255;SDS011;26989;45.524;10.938;2022-10-26T11:15:04;22.05;;;10.00;;
41255;SDS011;26989;45.524;10.938;2022-10-26T11:17:58;26.40;;;12.35;;
41255;SDS011;26989;45.524;10.938;2022-10-26T11:20:30;28.20;;;13.50;;
41255;SDS011;26989;45.524;10.938;2022-10-26T11:23:19;27.90;;;13.15;;
41255;SDS011;26989;45.524;10.938;2022-10-26T11:26:08;25.13;;;13.27;;
41255;SDS011;26989;45.524;10.938;2022-10-26T11:28:48;28.30;;;13.13;;
41255;SDS011;26989;45.524;10.938;2022-10-26T11:31:34;25.15;;;12.63;;
41255;SDS011;26989;45.524;10.938;2022-10-26T11:34:09;24.42;;;12.40;;
41255;SDS011;26989;45.524;10.938;2022-10-26T11:36:45;24.77;;;12.13;;
41255;SDS011;26989;45.524;10.938;2022-10-26T11:39:56;23.08;;;12.18;;
41255;SDS011;26989;45.524;10.938;2022-10-26T11:42:23;27.63;;;13.88;;
41255;SDS011;26989;45.524;10.938;2022-10-26T11:45:18;25.45;;;12.77;;
41255;SDS011;26989;45.524;10.938;2022-10-26T11:50:44;25.98;;;12.73;;
41255;SDS011;26989;45.524;10.938;2022-10-26T11:53:16;22.75;;;13.75;;
41255;SDS011;26989;45.524;10.938;2022-10-26T11:55:48;25.33;;;12.20;;
41255;SDS011;26989;45.524;10.938;2022-10-26T11:58:21;24.98;;;13.43;;
41255;SDS011;26989;45.524;10.938;2022-10-26T12:03:27;30.02;;;13.90;;
41255;SDS011;26989;45.524;10.938;2022-10-26T12:06:00;25.15;;;13.05;;
41255;SDS011;26989;45.524;10.938;2022-10-26T12:08:37;24.92;;;13.90;;
41255;SDS011;26989;45.524;10.938;2022-10-26T12:11:18;31.77;;;14.63;;
41255;SDS011;26989;45.524;10.938;2022-10-26T12:14:12;35.40;;;13.73;;
41255;SDS011;26989;45.524;10.938;2022-10-26T12:19:28;21.73;;;13.38;;
41255;SDS011;26989;45.524;10.938;2022-10-26T12:22:10;19.45;;;12.68;;
41255;SDS011;26989;45.524;10.938;2022-10-26T12:24:43;25.55;;;14.70;;
41255;SDS011;26989;45.524;10.938;2022-10-26T12:37:59;34.72;;;16.48;;
41255;SDS011;26989;45.524;10.938;2022-10-26T12:45:41;38.92;;;15.38;;
41255;SDS011;26989;45.524;10.938;2022-10-26T12:48:41;64.15;;;21.88;;
41255;SDS011;26989;45.524;10.938;2022-10-26T12:53:51;27.88;;;15.77;;
41255;SDS011;26989;45.524;10.938;2022-10-26T12:59:07;28.70;;;15.75;;
41255;SDS011;26989;45.524;10.938;2022-10-26T13:02:02;33.08;;;16.35;;
41255;SDS011;26989;45.524;10.938;2022-10-26T13:08:02;33.80;;;19.17;;
41255;SDS011;26989;45.524;10.938;2022-10-26T13:10:32;33.95;;;19.48;;
41255;SDS011;26989;45.524;10.938;2022-10-26T13:13:02;38.22;;;21.05;;
41255;SDS011;26989;45.524;10.938;2022-10-26T13:15:40;38.83;;;20.75;;
41255;SDS011;26989;45.524;10.938;2022-10-26T13:18:19;37.00;;;19.50;;
41255;SDS011;26989;45.524;10.938;2022-10-26T13:23:37;40.15;;;19.27;;
41255;SDS011;26989;45.524;10.938;2022-10-26T13:26:19;36.80;;;19.92;;
41255;SDS011;26989;45.524;10.938;2022-10-26T13:28:51;32.25;;;19.52;;
41255;SDS011;26989;45.524;10.938;2022-10-26T13:39:47;43.28;;;20.48;;
41255;SDS011;26989;45.524;10.938;2022-10-26T13:42:16;44.75;;;20.05;;
41255;SDS011;26989;45.524;10.938;2022-10-26T13:45:05;39.05;;;20.85;;
41255;SDS011;26989;45.524;10.938;2022-10-26T13:50:26;40.00;;;19.58;;
41255;SDS011;26989;45.524;10.938;2022-10-26T13:53:04;39.45;;;19.67;;
41255;SDS011;26989;45.524;10.938;2022-10-26T13:55:42;39.65;;;20.67;;
41255;SDS011;26989;45.524;10.938;2022-10-26T13:58:23;67.72;;;26.42;;
41255;SDS011;26989;45.524;10.938;2022-10-26T14:03:35;39.33;;;21.20;;
41255;SDS011;26989;45.524;10.938;2022-10-26T14:06:13;44.47;;;21.90;;
41255;SDS011;26989;45.524;10.938;2022-10-26T14:08:50;39.72;;;19.60;;
41255;SDS011;26989;45.524;10.938;2022-10-26T14:11:20;36.85;;;19.10;;
41255;SDS011;26989;45.524;10.938;2022-10-26T14:13:52;34.65;;;19.02;;
41255;SDS011;26989;45.524;10.938;2022-10-26T14:16:26;36.95;;;18.35;;
41255;SDS011;26989;45.524;10.938;2022-10-26T14:18:55;36.53;;;20.13;;
41255;SDS011;26989;45.524;10.938;2022-10-26T14:21:22;37.97;;;19.73;;
41255;SDS011;26989;45.524;10.938;2022-10-26T14:23:55;41.80;;;20.05;;
41255;SDS011;26989;45.524;10.938;2022-10-26T14:26:29;36.65;;;18.38;;
41255;SDS011;26989;45.524;10.938;2022-10-26T14:29:12;35.25;;;18.70;;
41255;SDS011;26989;45.524;10.938;2022-10-26T14:31:42;31.02;;;18.15;;
41255;SDS011;26989;45.524;10.938;2022-10-26T14:34:10;33.83;;;18.20;;
41255;SDS011;26989;45.524;10.938;2022-10-26T14:39:29;32.38;;;17.02;;
41255;SDS011;26989;45.524;10.938;2022-10-26T14:42:12;37.58;;;19.27;;
41255;SDS011;26989;45.524;10.938;2022-10-26T14:44:47;32.85;;;19.08;;
41255;SDS011;26989;45.524;10.938;2022-10-26T14:47:22;34.75;;;18.48;;
41255;SDS011;26989;45.524;10.938;2022-10-26T14:49:52;35.58;;;18.00;;
41255;SDS011;26989;45.524;10.938;2022-10-26T14:52:23;34.45;;;16.88;;
41255;SDS011;26989;45.524;10.938;2022-10-26T14:55:00;40.35;;;17.80;;
41255;SDS011;26989;45.524;10.938;2022-10-26T14:57:39;42.00;;;21.13;;
41255;SDS011;26989;45.524;10.938;2022-10-26T15:00:21;45.17;;;18.98;;
41255;SDS011;26989;45.524;10.938;2022-10-26T15:02:49;49.47;;;20.55;;
41255;SDS011;26989;45.524;10.938;2022-10-26T15:05:29;31.67;;;18.33;;
41255;SDS011;26989;45.524;10.938;2022-10-26T15:08:01;39.70;;;18.92;;
41255;SDS011;26989;45.524;10.938;2022-10-26T15:15:55;43.22;;;20.65;;
41255;SDS011;26989;45.524;10.938;2022-10-26T15:18:25;42.47;;;19.85;;
41255;SDS011;26989;45.524;10.938;2022-10-26T15:20:53;38.47;;;18.98;;
41255;SDS011;26989;45.524;10.938;2022-10-26T15:23:22;36.42;;;19.10;;
41255;SDS011;26989;45.524;10.938;2022-10-26T15:25:52;54.22;;;22.25;;
41255;SDS011;26989;45.524;10.938;2022-10-26T15:28:24;42.45;;;20.42;;
41255;SDS011;26989;45.524;10.938;2022-10-26T15:33:38;36.50;;;18.98;;
41255;SDS011;26989;45.524;10.938;2022-10-26T15:36:29;42.30;;;21.17;;
41255;SDS011;26989;45.524;10.938;2022-10-26T15:38:58;43.78;;;19.50;;
41255;SDS011;26989;45.524;10.938;2022-10-26T15:43:56;40.38;;;18.75;;
41255;SDS011;26989;45.524;10.938;2022-10-26T15:46:29;37.03;;;19.17;;
41255;SDS011;26989;45.524;10.938;2022-10-26T15:49:00;37.83;;;21.02;;
41255;SDS011;26989;45.524;10.938;2022-10-26T15:51:29;33.70;;;19.63;;
41255;SDS011;26989;45.524;10.938;2022-10-26T15:53:56;37.95;;;19.52;;
41255;SDS011;26989;45.524;10.938;2022-10-26T15:56:24;34.53;;;19.30;;
41255;SDS011;26989;45.524;10.938;2022-10-26T15:58:52;39.00;;;19.58;;
41255;SDS011;26989;45.524;10.938;2022-10-26T16:01:23;40.00;;;22.50;;
41255;SDS011;26989;45.524;10.938;2022-10-26T16:03:52;46.00;;;25.25;;
41255;SDS011;26989;45.524;10.938;2022-10-26T16:06:29;52.63;;;26.73;;
41255;SDS011;26989;45.524;10.938;2022-10-26T16:08:59;45.30;;;21.63;;
41255;SDS011;26989;45.524;10.938;2022-10-26T16:11:27;36.45;;;19.45;;
41255;SDS011;26989;45.524;10.938;2022-10-26T16:13:55;34.30;;;19.65;;
41255;SDS011;26989;45.524;10.938;2022-10-26T16:16:27;34.03;;;19.13;;
41255;SDS011;26989;45.524;10.938;2022-10-26T16:18:55;36.60;;;20.65;;
41255;SDS011;26989;45.524;10.938;2022-10-26T16:21:42;36.60;;;19.92;;
41255;SDS011;26989;45.524;10.938;2022-10-26T16:24:09;38.75;;;20.55;;
41255;SDS011;26989;45.524;10.938;2022-10-26T16:26:36;43.78;;;21.08;;
41255;SDS011;26989;45.524;10.938;2022-10-26T16:29:03;42.50;;;21.23;;
41255;SDS011;26989;45.524;10.938;2022-10-26T16:31:30;41.65;;;20.15;;
41255;SDS011;26989;45.524;10.938;2022-10-26T16:33:57;36.75;;;21.10;;
41255;SDS011;26989;45.524;10.938;2022-10-26T16:36:29;40.50;;;21.63;;
41255;SDS011;26989;45.524;10.938;2022-10-26T16:38:59;38.72;;;20.52;;
41255;SDS011;26989;45.524;10.938;2022-10-26T16:41:27;40.90;;;20.77;;
41255;SDS011;26989;45.524;10.938;2022-10-26T16:43:54;43.13;;;22.17;;
41255;SDS011;26989;45.524;10.938;2022-10-26T16:46:21;39.25;;;21.75;;
41255;SDS011;26989;45.524;10.938;2022-10-26T16:48:48;42.03;;;20.65;;
41255;SDS011;26989;45.524;10.938;2022-10-26T16:53:48;37.97;;;19.80;;
41255;SDS011;26989;45.524;10.938;2022-10-26T16:56:18;47.42;;;23.92;;
41255;SDS011;26989;45.524;10.938;2022-10-26T16:58:47;41.60;;;21.85;;
41255;SDS011;26989;45.524;10.938;2022-10-26T17:01:14;40.70;;;20.08;;
41255;SDS011;26989;45.524;10.938;2022-10-26T17:03:46;45.83;;;22.60;;
41255;SDS011;26989;45.524;10.938;2022-10-26T17:06:13;40.55;;;22.92;;
41255;SDS011;26989;45.524;10.938;2022-10-26T17:08:40;40.38;;;22.52;;